sensor_id;sensor_type;location;lat;lon;timestamp;temperature;humidity
9861;DHT22;4969;52.304;4.968;2023-02-26T00:01:41;3.93;66.56
9861;DHT22;4969;52.304;4.968;2023-02-26T00:04:10;4.14;65.75
9861;DHT22;4969;52.304;4.968;2023-02-26T00:06:37;4.50;64.22
9861;DHT22;4969;52.304;4.968;2023-02-26T00:09:16;4.48;64.13
9861;DHT22;4969;52.304;4.968;2023-02-26T00:11:44;4.70;63.09
9861;DHT22;4969;52.304;4.968;2023-02-26T00:14:13;4.46;63.17
9861;DHT22;4969;52.304;4.968;2023-02-26T00:16:40;4.39;63.22
9861;DHT22;4969;52.304;4.968;2023-02-26T00:19:10;4.74;62.50
9861;DHT22;4969;52.304;4.968;2023-02-26T00:21:38;4.95;69.86
9861;DHT22;4969;52.304;4.968;2023-02-26T00:24:05;5.43;59.39
9861;DHT22;4969;52.304;4.968;2023-02-26T00:26:33;5.56;59.60
9861;DHT22;4969;52.304;4.968;2023-02-26T00:29:00;5.20;57.27
9861;DHT22;4969;52.304;4.968;2023-02-26T00:31:28;5.90;56.40
9861;DHT22;4969;52.304;4.968;2023-02-26T00:33:56;6.18;57.91
9861;DHT22;4969;52.304;4.968;2023-02-26T00:36:43;5.51;55.85
9861;DHT22;4969;52.304;4.968;2023-02-26T00:39:18;6.29;71.40
9861;DHT22;4969;52.304;4.968;2023-02-26T00:41:48;7.09;63.95
9861;DHT22;4969;52.304;4.968;2023-02-26T00:44:15;6.75;59.11
9861;DHT22;4969;52.304;4.968;2023-02-26T00:46:46;6.50;64.28
9861;DHT22;4969;52.304;4.968;2023-02-26T00:49:22;6.22;72.61
9861;DHT22;4969;52.304;4.968;2023-02-26T00:51:57;7.31;62.18
9861;DHT22;4969;52.304;4.968;2023-02-26T00:54:25;8.19;50.85
9861;DHT22;4969;52.304;4.968;2023-02-26T00:56:53;6.89;61.04
9861;DHT22;4969;52.304;4.968;2023-02-26T00:59:21;7.12;62.13
9861;DHT22;4969;52.304;4.968;2023-02-26T01:01:48;6.74;52.26
9861;DHT22;4969;52.304;4.968;2023-02-26T01:04:18;6.34;55.79
9861;DHT22;4969;52.304;4.968;2023-02-26T01:06:47;5.46;55.14
9861;DHT22;4969;52.304;4.968;2023-02-26T01:09:21;6.39;59.88
9861;DHT22;4969;52.304;4.968;2023-02-26T01:11:50;6.08;55.16
9861;DHT22;4969;52.304;4.968;2023-02-26T01:14:17;5.42;58.57
9861;DHT22;4969;52.304;4.968;2023-02-26T01:16:50;5.27;54.19
9861;DHT22;4969;52.304;4.968;2023-02-26T01:19:26;6.34;62.09
9861;DHT22;4969;52.304;4.968;2023-02-26T01:21:59;7.89;62.98
9861;DHT22;4969;52.304;4.968;2023-02-26T01:24:29;8.37;58.18
9861;DHT22;4969;52.304;4.968;2023-02-26T01:26:56;6.25;50.91
9861;DHT22;4969;52.304;4.968;2023-02-26T01:29:23;5.60;53.12
9861;DHT22;4969;52.304;4.968;2023-02-26T01:31:54;6.56;73.90
9861;DHT22;4969;52.304;4.968;2023-02-26T01:34:29;6.58;56.47
9861;DHT22;4969;52.304;4.968;2023-02-26T01:37:02;5.63;53.43
9861;DHT22;4969;52.304;4.968;2023-02-26T01:39:37;5.13;55.94
9861;DHT22;4969;52.304;4.968;2023-02-26T01:42:14;5.26;54.18
9861;DHT22;4969;52.304;4.968;2023-02-26T01:44:52;6.16;58.39
9861;DHT22;4969;52.304;4.968;2023-02-26T01:47:22;6.39;61.86
9861;DHT22;4969;52.304;4.968;2023-02-26T01:49:51;6.23;52.02
9861;DHT22;4969;52.304;4.968;2023-02-26T01:55:31;6.58;52.69
9861;DHT22;4969;52.304;4.968;2023-02-26T01:57:58;6.16;51.22
9861;DHT22;4969;52.304;4.968;2023-02-26T02:00:28;5.69;58.47
9861;DHT22;4969;52.304;4.968;2023-02-26T02:02:55;6.10;58.51
9861;DHT22;4969;52.304;4.968;2023-02-26T02:05:27;5.66;52.55
9861;DHT22;4969;52.304;4.968;2023-02-26T02:07:56;6.08;60.50
9861;DHT22;4969;52.304;4.968;2023-02-26T02:10:23;6.64;62.79
9861;DHT22;4969;52.304;4.968;2023-02-26T02:12:55;5.44;52.67
9861;DHT22;4969;52.304;4.968;2023-02-26T02:15:31;5.04;52.05
9861;DHT22;4969;52.304;4.968;2023-02-26T02:18:04;4.91;54.12
9861;DHT22;4969;52.304;4.968;2023-02-26T02:23:34;5.99;62.86
9861;DHT22;4969;52.304;4.968;2023-02-26T02:29:47;5.71;53.67
9861;DHT22;4969;52.304;4.968;2023-02-26T02:32:19;5.37;62.16
9861;DHT22;4969;52.304;4.968;2023-02-26T02:34:49;5.92;62.48
9861;DHT22;4969;52.304;4.968;2023-02-26T02:37:21;5.18;52.77
9861;DHT22;4969;52.304;4.968;2023-02-26T02:39:52;7.37;65.59
9861;DHT22;4969;52.304;4.968;2023-02-26T02:42:24;5.73;47.95
9861;DHT22;4969;52.304;4.968;2023-02-26T02:44:56;4.99;50.24
9861;DHT22;4969;52.304;4.968;2023-02-26T02:47:26;4.16;52.62
9861;DHT22;4969;52.304;4.968;2023-02-26T02:49:59;5.47;56.21
9861;DHT22;4969;52.304;4.968;2023-02-26T02:52:31;5.25;60.24
9861;DHT22;4969;52.304;4.968;2023-02-26T02:55:02;4.80;51.08
9861;DHT22;4969;52.304;4.968;2023-02-26T02:57:34;4.70;62.09
9861;DHT22;4969;52.304;4.968;2023-02-26T03:00:05;4.74;56.87
9861;DHT22;4969;52.304;4.968;2023-02-26T03:02:40;5.11;55.34
9861;DHT22;4969;52.304;4.968;2023-02-26T03:05:08;5.25;51.67
9861;DHT22;4969;52.304;4.968;2023-02-26T03:07:38;4.48;52.70
9861;DHT22;4969;52.304;4.968;2023-02-26T03:10:08;5.12;62.13
9861;DHT22;4969;52.304;4.968;2023-02-26T03:12:35;4.84;56.23
9861;DHT22;4969;52.304;4.968;2023-02-26T03:15:02;5.19;60.78
9861;DHT22;4969;52.304;4.968;2023-02-26T03:17:32;4.97;59.19
9861;DHT22;4969;52.304;4.968;2023-02-26T03:20:14;5.11;57.19
9861;DHT22;4969;52.304;4.968;2023-02-26T03:22:47;4.40;53.49
9861;DHT22;4969;52.304;4.968;2023-02-26T03:25:20;4.52;56.93
9861;DHT22;4969;52.304;4.968;2023-02-26T03:27:54;4.18;53.94
9861;DHT22;4969;52.304;4.968;2023-02-26T03:30:28;4.57;56.06
9861;DHT22;4969;52.304;4.968;2023-02-26T03:33:01;6.16;61.09
9861;DHT22;4969;52.304;4.968;2023-02-26T03:35:35;4.63;57.07
9861;DHT22;4969;52.304;4.968;2023-02-26T03:38:08;4.52;62.45
9861;DHT22;4969;52.304;4.968;2023-02-26T03:40:40;4.87;63.70
9861;DHT22;4969;52.304;4.968;2023-02-26T03:43:11;5.27;56.79
9861;DHT22;4969;52.304;4.968;2023-02-26T03:45:41;5.50;61.51
9861;DHT22;4969;52.304;4.968;2023-02-26T03:48:13;6.16;69.46
9861;DHT22;4969;52.304;4.968;2023-02-26T03:50:45;7.86;63.02
9861;DHT22;4969;52.304;4.968;2023-02-26T03:53:16;6.58;53.32
9861;DHT22;4969;52.304;4.968;2023-02-26T03:55:45;5.85;52.37
9861;DHT22;4969;52.304;4.968;2023-02-26T03:58:13;7.69;51.76
9861;DHT22;4969;52.304;4.968;2023-02-26T04:00:41;5.99;56.76
9861;DHT22;4969;52.304;4.968;2023-02-26T04:03:13;5.59;49.36
9861;DHT22;4969;52.304;4.968;2023-02-26T04:05:44;5.07;54.67
9861;DHT22;4969;52.304;4.968;2023-02-26T04:08:13;5.01;57.15
9861;DHT22;4969;52.304;4.968;2023-02-26T04:10:43;4.88;58.01
9861;DHT22;4969;52.304;4.968;2023-02-26T04:13:10;5.07;50.59
9861;DHT22;4969;52.304;4.968;2023-02-26T04:15:37;4.91;51.74
9861;DHT22;4969;52.304;4.968;2023-02-26T04:18:03;4.83;59.93
9861;DHT22;4969;52.304;4.968;2023-02-26T04:20:30;5.42;57.89
9861;DHT22;4969;52.304;4.968;2023-02-26T04:22:58;5.85;69.70
9861;DHT22;4969;52.304;4.968;2023-02-26T04:25:25;6.02;60.09
9861;DHT22;4969;52.304;4.968;2023-02-26T04:27:51;4.85;52.29
9861;DHT22;4969;52.304;4.968;2023-02-26T04:30:18;5.23;61.11
9861;DHT22;4969;52.304;4.968;2023-02-26T04:32:45;6.77;58.06
9861;DHT22;4969;52.304;4.968;2023-02-26T04:35:12;6.46;63.22
9861;DHT22;4969;52.304;4.968;2023-02-26T04:37:39;4.66;53.93
9861;DHT22;4969;52.304;4.968;2023-02-26T04:40:08;4.73;65.67
9861;DHT22;4969;52.304;4.968;2023-02-26T04:42:35;6.25;65.90
9861;DHT22;4969;52.304;4.968;2023-02-26T04:45:02;4.83;51.53
9861;DHT22;4969;52.304;4.968;2023-02-26T04:47:29;4.74;58.98
9861;DHT22;4969;52.304;4.968;2023-02-26T04:49:56;5.25;54.04
9861;DHT22;4969;52.304;4.968;2023-02-26T04:52:22;5.30;61.75
9861;DHT22;4969;52.304;4.968;2023-02-26T04:54:49;5.23;53.77
9861;DHT22;4969;52.304;4.968;2023-02-26T04:57:17;5.01;58.53
9861;DHT22;4969;52.304;4.968;2023-02-26T04:59:43;5.23;62.74
9861;DHT22;4969;52.304;4.968;2023-02-26T05:02:10;4.37;53.70
9861;DHT22;4969;52.304;4.968;2023-02-26T05:04:37;4.92;56.87
9861;DHT22;4969;52.304;4.968;2023-02-26T05:07:03;5.25;54.99
9861;DHT22;4969;52.304;4.968;2023-02-26T05:09:30;5.25;68.26
9861;DHT22;4969;52.304;4.968;2023-02-26T05:11:57;5.50;50.73
9861;DHT22;4969;52.304;4.968;2023-02-26T05:14:25;5.32;51.44
9861;DHT22;4969;52.304;4.968;2023-02-26T05:16:51;4.12;50.61
9861;DHT22;4969;52.304;4.968;2023-02-26T05:19:18;3.39;50.79
9861;DHT22;4969;52.304;4.968;2023-02-26T05:21:44;4.63;51.97
9861;DHT22;4969;52.304;4.968;2023-02-26T05:24:13;5.22;52.59
9861;DHT22;4969;52.304;4.968;2023-02-26T05:26:40;4.77;48.03
9861;DHT22;4969;52.304;4.968;2023-02-26T05:29:06;5.23;57.85
9861;DHT22;4969;52.304;4.968;2023-02-26T05:31:34;4.61;51.14
9861;DHT22;4969;52.304;4.968;2023-02-26T05:34:01;4.71;50.27
9861;DHT22;4969;52.304;4.968;2023-02-26T05:36:28;4.02;52.39
9861;DHT22;4969;52.304;4.968;2023-02-26T05:38:54;3.84;51.35
9861;DHT22;4969;52.304;4.968;2023-02-26T05:41:21;5.01;72.34
9861;DHT22;4969;52.304;4.968;2023-02-26T05:43:47;4.18;50.24
9861;DHT22;4969;52.304;4.968;2023-02-26T05:46:14;4.84;63.70
9861;DHT22;4969;52.304;4.968;2023-02-26T05:48:42;4.14;51.81
9861;DHT22;4969;52.304;4.968;2023-02-26T05:51:08;3.88;53.08
9861;DHT22;4969;52.304;4.968;2023-02-26T05:53:35;4.12;53.00
9861;DHT22;4969;52.304;4.968;2023-02-26T05:56:01;4.50;56.37
9861;DHT22;4969;52.304;4.968;2023-02-26T05:58:30;4.49;51.07
9861;DHT22;4969;52.304;4.968;2023-02-26T06:00:58;3.94;51.84
9861;DHT22;4969;52.304;4.968;2023-02-26T06:03:25;3.94;52.44
9861;DHT22;4969;52.304;4.968;2023-02-26T06:05:53;3.53;52.09
9861;DHT22;4969;52.304;4.968;2023-02-26T06:08:20;3.64;52.11
9861;DHT22;4969;52.304;4.968;2023-02-26T06:10:46;3.93;53.54
9861;DHT22;4969;52.304;4.968;2023-02-26T06:13:13;4.14;61.47
9861;DHT22;4969;52.304;4.968;2023-02-26T06:15:39;4.32;58.73
9861;DHT22;4969;52.304;4.968;2023-02-26T06:18:06;4.14;52.14
9861;DHT22;4969;52.304;4.968;2023-02-26T06:20:33;5.07;57.10
9861;DHT22;4969;52.304;4.968;2023-02-26T06:23:01;4.43;53.23
9861;DHT22;4969;52.304;4.968;2023-02-26T06:25:27;4.87;56.74
9861;DHT22;4969;52.304;4.968;2023-02-26T06:27:54;6.01;54.32
9861;DHT22;4969;52.304;4.968;2023-02-26T06:30:20;5.53;51.82
9861;DHT22;4969;52.304;4.968;2023-02-26T06:32:48;6.06;52.75
9861;DHT22;4969;52.304;4.968;2023-02-26T06:35:14;4.92;57.39
9861;DHT22;4969;52.304;4.968;2023-02-26T06:37:41;7.55;62.64
9861;DHT22;4969;52.304;4.968;2023-02-26T06:40:10;6.63;48.93
9861;DHT22;4969;52.304;4.968;2023-02-26T06:42:37;7.48;63.57
9861;DHT22;4969;52.304;4.968;2023-02-26T06:45:05;6.54;53.51
9861;DHT22;4969;52.304;4.968;2023-02-26T06:47:32;5.43;61.75
9861;DHT22;4969;52.304;4.968;2023-02-26T06:49:58;4.45;54.44
9861;DHT22;4969;52.304;4.968;2023-02-26T06:52:25;5.77;67.83
9861;DHT22;4969;52.304;4.968;2023-02-26T06:54:51;5.73;50.25
9861;DHT22;4969;52.304;4.968;2023-02-26T06:57:19;5.54;66.29
9861;DHT22;4969;52.304;4.968;2023-02-26T06:59:46;6.48;63.38
9861;DHT22;4969;52.304;4.968;2023-02-26T07:02:15;6.23;55.60
9861;DHT22;4969;52.304;4.968;2023-02-26T07:04:42;4.78;52.31
9861;DHT22;4969;52.304;4.968;2023-02-26T07:07:09;4.71;63.66
9861;DHT22;4969;52.304;4.968;2023-02-26T07:09:35;5.07;66.56
9861;DHT22;4969;52.304;4.968;2023-02-26T07:12:02;4.06;53.24
9861;DHT22;4969;52.304;4.968;2023-02-26T07:14:32;3.97;57.16
9861;DHT22;4969;52.304;4.968;2023-02-26T07:16:59;4.19;53.81
9861;DHT22;4969;52.304;4.968;2023-02-26T07:19:26;4.48;53.49
9861;DHT22;4969;52.304;4.968;2023-02-26T07:21:52;3.86;54.40
9861;DHT22;4969;52.304;4.968;2023-02-26T07:24:19;3.35;55.12
9861;DHT22;4969;52.304;4.968;2023-02-26T07:26:46;4.67;72.47
9861;DHT22;4969;52.304;4.968;2023-02-26T07:29:12;5.02;54.87
9861;DHT22;4969;52.304;4.968;2023-02-26T07:31:40;4.15;55.19
9861;DHT22;4969;52.304;4.968;2023-02-26T07:34:07;3.95;54.37
9861;DHT22;4969;52.304;4.968;2023-02-26T07:36:33;5.66;78.00
9861;DHT22;4969;52.304;4.968;2023-02-26T07:39:00;7.22;58.12
9861;DHT22;4969;52.304;4.968;2023-02-26T07:41:27;5.71;50.94
9861;DHT22;4969;52.304;4.968;2023-02-26T07:43:53;5.25;52.09
9861;DHT22;4969;52.304;4.968;2023-02-26T07:46:20;5.74;55.31
9861;DHT22;4969;52.304;4.968;2023-02-26T07:48:48;6.12;58.99
9861;DHT22;4969;52.304;4.968;2023-02-26T07:51:14;5.13;50.01
9861;DHT22;4969;52.304;4.968;2023-02-26T07:53:41;4.09;55.52
9861;DHT22;4969;52.304;4.968;2023-02-26T07:56:07;4.97;57.48
9861;DHT22;4969;52.304;4.968;2023-02-26T07:58:34;5.50;59.65
9861;DHT22;4969;52.304;4.968;2023-02-26T08:01:01;5.23;54.47
9861;DHT22;4969;52.304;4.968;2023-02-26T08:03:27;5.53;52.95
9861;DHT22;4969;52.304;4.968;2023-02-26T08:05:55;4.29;51.21
9861;DHT22;4969;52.304;4.968;2023-02-26T08:08:24;6.29;65.56
9861;DHT22;4969;52.304;4.968;2023-02-26T08:10:51;5.75;54.34
9861;DHT22;4969;52.304;4.968;2023-02-26T08:13:17;5.26;60.16
9861;DHT22;4969;52.304;4.968;2023-02-26T08:15:44;5.50;56.39
9861;DHT22;4969;52.304;4.968;2023-02-26T08:18:12;5.35;49.24
9861;DHT22;4969;52.304;4.968;2023-02-26T08:20:39;6.53;67.75
9861;DHT22;4969;52.304;4.968;2023-02-26T08:23:07;7.74;52.24
9861;DHT22;4969;52.304;4.968;2023-02-26T08:25:34;10.14;69.99
9861;DHT22;4969;52.304;4.968;2023-02-26T08:28:01;9.31;64.56
9861;DHT22;4969;52.304;4.968;2023-02-26T08:30:27;7.37;53.81
9861;DHT22;4969;52.304;4.968;2023-02-26T08:32:54;8.10;72.05
9861;DHT22;4969;52.304;4.968;2023-02-26T08:35:21;5.69;45.91
9861;DHT22;4969;52.304;4.968;2023-02-26T08:37:47;5.87;58.95
9861;DHT22;4969;52.304;4.968;2023-02-26T08:40:16;5.25;49.09
9861;DHT22;4969;52.304;4.968;2023-02-26T08:42:42;5.32;56.11
9861;DHT22;4969;52.304;4.968;2023-02-26T08:45:09;6.41;52.55
9861;DHT22;4969;52.304;4.968;2023-02-26T08:47:36;6.33;49.89
9861;DHT22;4969;52.304;4.968;2023-02-26T08:50:06;8.03;76.05
9861;DHT22;4969;52.304;4.968;2023-02-26T08:52:32;8.05;57.78
9861;DHT22;4969;52.304;4.968;2023-02-26T08:54:59;5.84;47.95
9861;DHT22;4969;52.304;4.968;2023-02-26T08:57:27;5.63;52.92
9861;DHT22;4969;52.304;4.968;2023-02-26T08:59:54;5.29;50.27
9861;DHT22;4969;52.304;4.968;2023-02-26T09:02:20;7.82;70.66
9861;DHT22;4969;52.304;4.968;2023-02-26T09:04:47;7.33;48.46
9861;DHT22;4969;52.304;4.968;2023-02-26T09:07:13;8.47;66.04
9861;DHT22;4969;52.304;4.968;2023-02-26T09:09:40;6.78;45.98
9861;DHT22;4969;52.304;4.968;2023-02-26T09:12:06;8.16;71.87
9861;DHT22;4969;52.304;4.968;2023-02-26T09:14:34;7.09;45.49
9861;DHT22;4969;52.304;4.968;2023-02-26T09:17:01;6.56;72.64
9861;DHT22;4969;52.304;4.968;2023-02-26T09:19:27;8.34;75.92
9861;DHT22;4969;52.304;4.968;2023-02-26T09:21:54;8.76;49.73
9861;DHT22;4969;52.304;4.968;2023-02-26T09:24:21;7.62;46.62
9861;DHT22;4969;52.304;4.968;2023-02-26T09:26:48;7.24;53.54
9861;DHT22;4969;52.304;4.968;2023-02-26T09:29:14;6.10;45.92
9861;DHT22;4969;52.304;4.968;2023-02-26T09:31:42;5.87;51.01
9861;DHT22;4969;52.304;4.968;2023-02-26T09:34:09;5.73;47.45
9861;DHT22;4969;52.304;4.968;2023-02-26T09:36:36;5.48;47.60
9861;DHT22;4969;52.304;4.968;2023-02-26T09:39:03;8.54;77.22
9861;DHT22;4969;52.304;4.968;2023-02-26T09:41:32;6.47;45.38
9861;DHT22;4969;52.304;4.968;2023-02-26T09:44:16;7.03;59.05
9861;DHT22;4969;52.304;4.968;2023-02-26T09:46:56;7.41;52.58
9861;DHT22;4969;52.304;4.968;2023-02-26T09:49:31;7.34;46.52
9861;DHT22;4969;52.304;4.968;2023-02-26T09:52:02;7.51;46.16
9861;DHT22;4969;52.304;4.968;2023-02-26T09:54:34;7.84;61.86
9861;DHT22;4969;52.304;4.968;2023-02-26T09:57:03;10.12;52.95
9861;DHT22;4969;52.304;4.968;2023-02-26T09:59:32;8.72;61.94
9861;DHT22;4969;52.304;4.968;2023-02-26T10:02:04;8.13;47.37
9861;DHT22;4969;52.304;4.968;2023-02-26T10:04:47;8.88;48.30
9861;DHT22;4969;52.304;4.968;2023-02-26T10:07:22;9.22;64.07
9861;DHT22;4969;52.304;4.968;2023-02-26T10:09:58;9.13;41.64
9861;DHT22;4969;52.304;4.968;2023-02-26T10:12:27;7.52;53.32
9861;DHT22;4969;52.304;4.968;2023-02-26T10:14:57;6.77;48.22
9861;DHT22;4969;52.304;4.968;2023-02-26T10:17:31;6.87;48.78
9861;DHT22;4969;52.304;4.968;2023-02-26T10:20:00;10.37;60.63
9861;DHT22;4969;52.304;4.968;2023-02-26T10:22:31;12.57;54.89
9861;DHT22;4969;52.304;4.968;2023-02-26T10:25:02;8.38;45.64
9861;DHT22;4969;52.304;4.968;2023-02-26T10:27:39;7.33;59.20
9861;DHT22;4969;52.304;4.968;2023-02-26T10:30:13;10.13;67.20
9861;DHT22;4969;52.304;4.968;2023-02-26T10:32:52;9.26;51.20
9861;DHT22;4969;52.304;4.968;2023-02-26T10:35:21;8.05;46.05
9861;DHT22;4969;52.304;4.968;2023-02-26T10:37:53;7.52;65.71
9861;DHT22;4969;52.304;4.968;2023-02-26T10:40:23;7.86;62.68
9861;DHT22;4969;52.304;4.968;2023-02-26T10:42:57;7.69;46.92
9861;DHT22;4969;52.304;4.968;2023-02-26T10:45:34;6.47;46.48
9861;DHT22;4969;52.304;4.968;2023-02-26T10:48:16;6.10;49.31
9861;DHT22;4969;52.304;4.968;2023-02-26T10:50:48;6.51;56.53
9861;DHT22;4969;52.304;4.968;2023-02-26T10:53:14;5.95;49.02
9861;DHT22;4969;52.304;4.968;2023-02-26T10:55:44;5.94;56.89
9861;DHT22;4969;52.304;4.968;2023-02-26T10:58:14;6.12;49.71
9861;DHT22;4969;52.304;4.968;2023-02-26T11:00:44;7.48;70.02
9861;DHT22;4969;52.304;4.968;2023-02-26T11:03:16;6.73;48.69
9861;DHT22;4969;52.304;4.968;2023-02-26T11:05:44;7.06;48.69
9861;DHT22;4969;52.304;4.968;2023-02-26T11:08:14;6.78;55.39
9861;DHT22;4969;52.304;4.968;2023-02-26T11:10:46;5.90;50.37
9861;DHT22;4969;52.304;4.968;2023-02-26T11:13:13;5.64;55.68
9861;DHT22;4969;52.304;4.968;2023-02-26T11:15:41;5.18;53.67
9861;DHT22;4969;52.304;4.968;2023-02-26T11:18:14;5.40;52.91
9861;DHT22;4969;52.304;4.968;2023-02-26T11:20:45;5.44;53.22
9861;DHT22;4969;52.304;4.968;2023-02-26T11:23:13;5.75;52.79
9861;DHT22;4969;52.304;4.968;2023-02-26T11:25:41;5.29;54.17
9861;DHT22;4969;52.304;4.968;2023-02-26T11:28:19;5.33;54.40
9861;DHT22;4969;52.304;4.968;2023-02-26T11:30:46;5.29;53.35
9861;DHT22;4969;52.304;4.968;2023-02-26T11:33:20;5.53;59.64
9861;DHT22;4969;52.304;4.968;2023-02-26T11:35:47;5.48;53.96
9861;DHT22;4969;52.304;4.968;2023-02-26T11:38:18;6.09;63.55
9861;DHT22;4969;52.304;4.968;2023-02-26T11:40:48;5.50;52.04
9861;DHT22;4969;52.304;4.968;2023-02-26T11:43:18;4.89;54.63
9861;DHT22;4969;52.304;4.968;2023-02-26T11:45:47;7.91;66.06
9861;DHT22;4969;52.304;4.968;2023-02-26T11:48:20;6.28;60.33
9861;DHT22;4969;52.304;4.968;2023-02-26T11:50:52;5.80;52.21
9861;DHT22;4969;52.304;4.968;2023-02-26T11:53:24;5.47;53.55
9861;DHT22;4969;52.304;4.968;2023-02-26T11:55:58;5.23;56.77
9861;DHT22;4969;52.304;4.968;2023-02-26T11:58:28;5.44;54.17
9861;DHT22;4969;52.304;4.968;2023-02-26T12:00:57;5.53;54.80
9861;DHT22;4969;52.304;4.968;2023-02-26T12:03:30;5.25;53.85
9861;DHT22;4969;52.304;4.968;2023-02-26T12:05:58;5.50;54.19
9861;DHT22;4969;52.304;4.968;2023-02-26T12:08:30;6.58;56.24
9861;DHT22;4969;52.304;4.968;2023-02-26T12:14:44;6.71;52.28
9861;DHT22;4969;52.304;4.968;2023-02-26T12:17:29;7.03;50.39
9861;DHT22;4969;52.304;4.968;2023-02-26T12:20:07;6.08;53.30
9861;DHT22;4969;52.304;4.968;2023-02-26T12:22:48;6.13;53.47
9861;DHT22;4969;52.304;4.968;2023-02-26T12:25:53;5.23;55.18
9861;DHT22;4969;52.304;4.968;2023-02-26T12:28:50;5.60;55.78
9861;DHT22;4969;52.304;4.968;2023-02-26T12:34:26;5.98;54.17
9861;DHT22;4969;52.304;4.968;2023-02-26T12:37:13;5.75;54.42
9861;DHT22;4969;52.304;4.968;2023-02-26T12:39:56;5.57;55.37
9861;DHT22;4969;52.304;4.968;2023-02-26T12:42:31;5.84;56.43
9861;DHT22;4969;52.304;4.968;2023-02-26T12:45:14;6.53;54.56
9861;DHT22;4969;52.304;4.968;2023-02-26T12:47:53;6.60;56.20
9861;DHT22;4969;52.304;4.968;2023-02-26T12:50:34;5.73;55.45
9861;DHT22;4969;52.304;4.968;2023-02-26T12:53:24;5.44;56.16
9861;DHT22;4969;52.304;4.968;2023-02-26T12:56:03;5.82;55.33
9861;DHT22;4969;52.304;4.968;2023-02-26T12:58:52;5.98;56.62
9861;DHT22;4969;52.304;4.968;2023-02-26T13:01:34;6.08;55.30
9861;DHT22;4969;52.304;4.968;2023-02-26T13:04:34;5.98;55.51
9861;DHT22;4969;52.304;4.968;2023-02-26T13:07:20;6.70;53.85
9861;DHT22;4969;52.304;4.968;2023-02-26T13:09:58;6.06;55.99
9861;DHT22;4969;52.304;4.968;2023-02-26T13:12:34;6.39;61.06
9861;DHT22;4969;52.304;4.968;2023-02-26T13:15:20;6.36;56.79
9861;DHT22;4969;52.304;4.968;2023-02-26T13:17:55;6.50;58.72
9861;DHT22;4969;52.304;4.968;2023-02-26T13:20:27;6.80;55.18
9861;DHT22;4969;52.304;4.968;2023-02-26T13:22:56;6.25;54.71
9861;DHT22;4969;52.304;4.968;2023-02-26T13:25:32;6.16;55.68
9861;DHT22;4969;52.304;4.968;2023-02-26T13:28:04;6.39;55.43
9861;DHT22;4969;52.304;4.968;2023-02-26T13:30:37;6.03;56.37
9861;DHT22;4969;52.304;4.968;2023-02-26T13:33:14;6.96;64.18
9861;DHT22;4969;52.304;4.968;2023-02-26T13:35:42;6.50;56.92
9861;DHT22;4969;52.304;4.968;2023-02-26T13:38:17;5.95;55.74
9861;DHT22;4969;52.304;4.968;2023-02-26T13:40:56;5.92;56.69
9861;DHT22;4969;52.304;4.968;2023-02-26T13:43:43;5.90;56.62
9861;DHT22;4969;52.304;4.968;2023-02-26T13:46:32;5.92;55.89
9861;DHT22;4969;52.304;4.968;2023-02-26T13:49:08;6.20;57.52
9861;DHT22;4969;52.304;4.968;2023-02-26T13:51:41;7.19;55.37
9861;DHT22;4969;52.304;4.968;2023-02-26T13:54:28;7.33;52.21
9861;DHT22;4969;52.304;4.968;2023-02-26T13:57:09;6.84;53.06
9861;DHT22;4969;52.304;4.968;2023-02-26T13:59:53;7.27;51.94
9861;DHT22;4969;52.304;4.968;2023-02-26T14:02:35;6.94;50.93
9861;DHT22;4969;52.304;4.968;2023-02-26T14:05:09;6.95;50.44
9861;DHT22;4969;52.304;4.968;2023-02-26T14:08:07;6.68;59.37
9861;DHT22;4969;52.304;4.968;2023-02-26T14:10:43;6.85;52.21
9861;DHT22;4969;52.304;4.968;2023-02-26T14:13:15;6.50;53.00
9861;DHT22;4969;52.304;4.968;2023-02-26T14:15:49;6.87;52.64
9861;DHT22;4969;52.304;4.968;2023-02-26T14:18:34;7.47;49.92
9861;DHT22;4969;52.304;4.968;2023-02-26T14:21:37;7.12;53.60
9861;DHT22;4969;52.304;4.968;2023-02-26T14:24:14;7.31;51.03
9861;DHT22;4969;52.304;4.968;2023-02-26T14:26:45;7.13;53.58
9861;DHT22;4969;52.304;4.968;2023-02-26T14:29:18;6.95;50.18
9861;DHT22;4969;52.304;4.968;2023-02-26T14:32:13;7.23;59.70
9861;DHT22;4969;52.304;4.968;2023-02-26T14:34:47;7.92;49.30
9861;DHT22;4969;52.304;4.968;2023-02-26T14:37:16;7.27;49.82
9861;DHT22;4969;52.304;4.968;2023-02-26T14:39:48;7.22;57.85
9861;DHT22;4969;52.304;4.968;2023-02-26T14:42:20;7.50;49.77
9861;DHT22;4969;52.304;4.968;2023-02-26T14:44:51;6.50;50.26
9861;DHT22;4969;52.304;4.968;2023-02-26T14:47:19;6.30;54.79
9861;DHT22;4969;52.304;4.968;2023-02-26T14:49:47;6.95;51.66
9861;DHT22;4969;52.304;4.968;2023-02-26T14:52:35;6.87;49.06
9861;DHT22;4969;52.304;4.968;2023-02-26T14:55:18;7.89;51.99
9861;DHT22;4969;52.304;4.968;2023-02-26T14:57:52;7.41;49.80
9861;DHT22;4969;52.304;4.968;2023-02-26T15:00:32;7.11;50.74
9861;DHT22;4969;52.304;4.968;2023-02-26T15:03:31;6.60;54.21
9861;DHT22;4969;52.304;4.968;2023-02-26T15:06:10;6.56;56.21
9861;DHT22;4969;52.304;4.968;2023-02-26T15:08:49;6.94;55.46
9861;DHT22;4969;52.304;4.968;2023-02-26T15:11:41;6.88;52.11
9861;DHT22;4969;52.304;4.968;2023-02-26T15:17:24;7.58;63.04
9861;DHT22;4969;52.304;4.968;2023-02-26T15:20:05;7.47;55.67
9861;DHT22;4969;52.304;4.968;2023-02-26T15:22:50;8.68;54.16
9861;DHT22;4969;52.304;4.968;2023-02-26T15:25:26;7.46;48.52
9861;DHT22;4969;52.304;4.968;2023-02-26T15:27:53;6.48;51.39
9861;DHT22;4969;52.304;4.968;2023-02-26T15:30:21;6.68;54.11
9861;DHT22;4969;52.304;4.968;2023-02-26T15:32:55;6.74;54.34
9861;DHT22;4969;52.304;4.968;2023-02-26T15:35:23;6.73;60.42
9861;DHT22;4969;52.304;4.968;2023-02-26T15:37:52;6.91;61.10
9861;DHT22;4969;52.304;4.968;2023-02-26T15:40:21;6.39;52.65
9861;DHT22;4969;52.304;4.968;2023-02-26T15:42:50;6.44;58.72
9861;DHT22;4969;52.304;4.968;2023-02-26T15:45:21;6.30;54.86
9861;DHT22;4969;52.304;4.968;2023-02-26T15:47:53;6.36;51.97
9861;DHT22;4969;52.304;4.968;2023-02-26T15:50:24;6.09;53.08
9861;DHT22;4969;52.304;4.968;2023-02-26T15:52:54;7.31;65.21
9861;DHT22;4969;52.304;4.968;2023-02-26T15:55:21;6.88;53.25
9861;DHT22;4969;52.304;4.968;2023-02-26T15:57:48;6.37;54.37
9861;DHT22;4969;52.304;4.968;2023-02-26T16:00:18;6.30;55.12
9861;DHT22;4969;52.304;4.968;2023-02-26T16:02:51;6.40;54.58
9861;DHT22;4969;52.304;4.968;2023-02-26T16:05:18;6.65;53.37
9861;DHT22;4969;52.304;4.968;2023-02-26T16:07:45;6.29;53.94
9861;DHT22;4969;52.304;4.968;2023-02-26T16:10:16;6.83;58.40
9861;DHT22;4969;52.304;4.968;2023-02-26T16:12:43;7.26;56.51
9861;DHT22;4969;52.304;4.968;2023-02-26T16:15:16;7.64;51.01
9861;DHT22;4969;52.304;4.968;2023-02-26T16:17:47;6.37;53.51
9861;DHT22;4969;52.304;4.968;2023-02-26T16:20:17;6.73;52.66
9861;DHT22;4969;52.304;4.968;2023-02-26T16:22:47;5.92;53.39
9861;DHT22;4969;52.304;4.968;2023-02-26T16:25:18;6.09;53.57
9861;DHT22;4969;52.304;4.968;2023-02-26T16:27:56;5.82;54.05
9861;DHT22;4969;52.304;4.968;2023-02-26T16:30:27;5.81;55.41
9861;DHT22;4969;52.304;4.968;2023-02-26T16:32:56;5.78;55.67
9861;DHT22;4969;52.304;4.968;2023-02-26T16:35:30;5.75;56.30
9861;DHT22;4969;52.304;4.968;2023-02-26T16:38:02;5.92;56.12
9861;DHT22;4969;52.304;4.968;2023-02-26T16:40:34;5.92;55.30
9861;DHT22;4969;52.304;4.968;2023-02-26T16:43:02;5.81;55.43
9861;DHT22;4969;52.304;4.968;2023-02-26T16:45:43;6.06;55.54
9861;DHT22;4969;52.304;4.968;2023-02-26T16:48:16;6.03;56.71
9861;DHT22;4969;52.304;4.968;2023-02-26T16:50:52;6.20;56.15
9861;DHT22;4969;52.304;4.968;2023-02-26T16:53:32;6.58;54.60
9861;DHT22;4969;52.304;4.968;2023-02-26T16:56:00;6.51;54.84
9861;DHT22;4969;52.304;4.968;2023-02-26T16:58:28;6.44;53.85
9861;DHT22;4969;52.304;4.968;2023-02-26T17:01:05;5.94;55.87
9861;DHT22;4969;52.304;4.968;2023-02-26T17:03:33;5.95;58.47